sensor_id;sensor_type;location;lat;lon;timestamp;pressure;altitude;pressure_sealevel;temperature;humidity
21185;BME280;18176;49.502;11.754;2024-01-30T00:00:52;98438.78;;;5.29;54.02
21185;BME280;18176;49.502;11.754;2024-01-30T00:05:14;98444.34;;;5.26;54.18
21185;BME280;18176;49.502;11.754;2024-01-30T00:09:34;98429.72;;;5.23;54.19
21185;BME280;18176;49.502;11.754;2024-01-30T00:13:58;98447.78;;;5.26;54.20
21185;BME280;18176;49.502;11.754;2024-01-30T00:18:18;98439.56;;;5.21;54.51
21185;BME280;18176;49.502;11.754;2024-01-30T00:22:39;98432.84;;;5.27;54.18
21185;BME280;18176;49.502;11.754;2024-01-30T00:26:59;98436.75;;;5.15;54.64
21185;BME280;18176;49.502;11.754;2024-01-30T00:31:23;98449.91;;;5.23;54.58
21185;BME280;18176;49.502;11.754;2024-01-30T00:35:43;98452.25;;;5.34;54.47
21185;BME280;18176;49.502;11.754;2024-01-30T00:40:05;98451.25;;;5.27;54.70
21185;BME280;18176;49.502;11.754;2024-01-30T00:44:28;98447.31;;;5.31;54.72
21185;BME280;18176;49.502;11.754;2024-01-30T00:48:51;98447.97;;;5.25;54.82
21185;BME280;18176;49.502;11.754;2024-01-30T00:53:12;98448.22;;;5.06;55.07
21185;BME280;18176;49.502;11.754;2024-01-30T00:57:32;98452.34;;;5.08;54.89
21185;BME280;18176;49.502;11.754;2024-01-30T01:01:53;98427.84;;;5.00;54.86
21185;BME280;18176;49.502;11.754;2024-01-30T01:06:17;98433.47;;;5.13;54.58
21185;BME280;18176;49.502;11.754;2024-01-30T01:10:37;98450.19;;;5.12;54.63
21185;BME280;18176;49.502;11.754;2024-01-30T01:14:58;98422.53;;;4.91;54.82
21185;BME280;18176;49.502;11.754;2024-01-30T01:19:20;98450.47;;;5.01;55.11
21185;BME280;18176;49.502;11.754;2024-01-30T01:23:43;98441.94;;;4.98;55.72
21185;BME280;18176;49.502;11.754;2024-01-30T01:28:05;98440.63;;;4.94;55.20
21185;BME280;18176;49.502;11.754;2024-01-30T01:32:25;98437.00;;;4.95;54.94
21185;BME280;18176;49.502;11.754;2024-01-30T01:36:47;98434.00;;;4.90;54.89
21185;BME280;18176;49.502;11.754;2024-01-30T01:41:10;98431.56;;;4.89;54.77
21185;BME280;18176;49.502;11.754;2024-01-30T01:45:30;98435.97;;;4.88;54.56
21185;BME280;18176;49.502;11.754;2024-01-30T01:49:51;98431.19;;;4.84;54.47
21185;BME280;18176;49.502;11.754;2024-01-30T01:54:14;98421.81;;;4.73;54.70
21185;BME280;18176;49.502;11.754;2024-01-30T01:58:38;98400.00;;;4.47;54.83
21185;BME280;18176;49.502;11.754;2024-01-30T02:03:00;98429.28;;;4.60;54.80
21185;BME280;18176;49.502;11.754;2024-01-30T02:07:21;98404.75;;;4.44;54.60
21185;BME280;18176;49.502;11.754;2024-01-30T02:11:42;98417.09;;;4.51;54.56
21185;BME280;18176;49.502;11.754;2024-01-30T02:16:06;98423.81;;;4.54;54.34
21185;BME280;18176;49.502;11.754;2024-01-30T02:20:30;98421.34;;;4.52;54.27
21185;BME280;18176;49.502;11.754;2024-01-30T02:24:53;98419.00;;;4.41;54.36
21185;BME280;18176;49.502;11.754;2024-01-30T02:29:14;98429.13;;;4.36;54.70
21185;BME280;18176;49.502;11.754;2024-01-30T02:33:35;98423.31;;;4.24;55.06
21185;BME280;18176;49.502;11.754;2024-01-30T02:37:56;98425.72;;;4.18;55.39
21185;BME280;18176;49.502;11.754;2024-01-30T02:42:19;98423.41;;;4.15;55.34
21185;BME280;18176;49.502;11.754;2024-01-30T02:46:39;98409.44;;;4.14;55.24
21185;BME280;18176;49.502;11.754;2024-01-30T02:51:00;98414.28;;;4.19;56.32
21185;BME280;18176;49.502;11.754;2024-01-30T02:55:20;98405.16;;;4.31;55.36
21185;BME280;18176;49.502;11.754;2024-01-30T02:59:44;98428.19;;;4.45;55.40
21185;BME280;18176;49.502;11.754;2024-01-30T03:04:04;98419.47;;;4.37;55.39
21185;BME280;18176;49.502;11.754;2024-01-30T03:08:25;98404.19;;;4.32;55.66
21185;BME280;18176;49.502;11.754;2024-01-30T03:12:46;98393.03;;;4.30;55.74
21185;BME280;18176;49.502;11.754;2024-01-30T03:17:09;98408.53;;;4.49;55.68
21185;BME280;18176;49.502;11.754;2024-01-30T03:21:30;98349.59;;;4.10;55.50
21185;BME280;18176;49.502;11.754;2024-01-30T03:25:50;98405.56;;;4.44;55.83
21185;BME280;18176;49.502;11.754;2024-01-30T03:30:11;98395.47;;;4.57;55.64
21185;BME280;18176;49.502;11.754;2024-01-30T03:34:34;98383.78;;;4.52;55.20
21185;BME280;18176;49.502;11.754;2024-01-30T03:38:55;98400.53;;;4.51;55.16
21185;BME280;18176;49.502;11.754;2024-01-30T03:43:16;98404.94;;;4.50;54.92
21185;BME280;18176;49.502;11.754;2024-01-30T03:47:36;98378.31;;;4.37;54.84
21185;BME280;18176;49.502;11.754;2024-01-30T03:51:59;98387.88;;;4.46;54.95
21185;BME280;18176;49.502;11.754;2024-01-30T03:56:20;98383.13;;;4.24;56.26
21185;BME280;18176;49.502;11.754;2024-01-30T04:00:45;98375.00;;;4.35;56.50
21185;BME280;18176;49.502;11.754;2024-01-30T04:05:07;98337.88;;;4.22;56.88
21185;BME280;18176;49.502;11.754;2024-01-30T04:09:30;98380.53;;;4.58;56.11
21185;BME280;18176;49.502;11.754;2024-01-30T04:13:51;98365.94;;;4.55;55.47
21185;BME280;18176;49.502;11.754;2024-01-30T04:18:12;98368.13;;;4.42;55.80
21185;BME280;18176;49.502;11.754;2024-01-30T04:22:33;98373.56;;;4.41;55.62
21185;BME280;18176;49.502;11.754;2024-01-30T04:26:56;98374.09;;;4.44;55.31
21185;BME280;18176;49.502;11.754;2024-01-30T04:31:16;98364.81;;;4.32;56.13
21185;BME280;18176;49.502;11.754;2024-01-30T04:35:37;98330.75;;;4.14;56.83
21185;BME280;18176;49.502;11.754;2024-01-30T04:39:58;98356.28;;;4.30;56.53
21185;BME280;18176;49.502;11.754;2024-01-30T04:44:21;98355.16;;;4.33;56.51
21185;BME280;18176;49.502;11.754;2024-01-30T04:48:42;98361.19;;;4.33;56.49
21185;BME280;18176;49.502;11.754;2024-01-30T04:53:03;98362.97;;;4.24;57.21
21185;BME280;18176;49.502;11.754;2024-01-30T04:57:25;98367.47;;;4.40;56.73
21185;BME280;18176;49.502;11.754;2024-01-30T05:01:48;98364.19;;;4.38;56.20
21185;BME280;18176;49.502;11.754;2024-01-30T05:06:09;98378.59;;;4.34;56.52
21185;BME280;18176;49.502;11.754;2024-01-30T05:10:30;98378.31;;;4.37;56.25
21185;BME280;18176;49.502;11.754;2024-01-30T05:14:50;98374.78;;;4.28;56.44
21185;BME280;18176;49.502;11.754;2024-01-30T05:19:14;98393.72;;;4.40;55.78
21185;BME280;18176;49.502;11.754;2024-01-30T05:23:35;98404.75;;;4.18;56.28
21185;BME280;18176;49.502;11.754;2024-01-30T05:27:55;98408.22;;;4.01;56.66
21185;BME280;18176;49.502;11.754;2024-01-30T05:32:16;98400.28;;;3.93;56.73
21185;BME280;18176;49.502;11.754;2024-01-30T05:36:39;98406.88;;;3.97;57.17
21185;BME280;18176;49.502;11.754;2024-01-30T05:41:00;98394.97;;;3.85;57.41
21185;BME280;18176;49.502;11.754;2024-01-30T05:45:21;98391.44;;;3.94;59.72
21185;BME280;18176;49.502;11.754;2024-01-30T05:49:41;98411.03;;;4.25;59.95
21185;BME280;18176;49.502;11.754;2024-01-30T05:54:04;98404.31;;;4.56;59.52
21185;BME280;18176;49.502;11.754;2024-01-30T05:58:25;98413.25;;;4.71;58.77
21185;BME280;18176;49.502;11.754;2024-01-30T06:02:46;98414.88;;;4.72;58.16
21185;BME280;18176;49.502;11.754;2024-01-30T06:07:06;98390.50;;;4.54;57.76
21185;BME280;18176;49.502;11.754;2024-01-30T06:11:30;98417.19;;;4.67;57.65
21185;BME280;18176;49.502;11.754;2024-01-30T06:15:51;98416.16;;;4.60;57.38
21185;BME280;18176;49.502;11.754;2024-01-30T06:20:12;98398.03;;;4.49;56.92
21185;BME280;18176;49.502;11.754;2024-01-30T06:24:33;98392.28;;;4.46;57.61
21185;BME280;18176;49.502;11.754;2024-01-30T06:28:56;98409.78;;;5.05;57.79
21185;BME280;18176;49.502;11.754;2024-01-30T06:33:17;98411.75;;;5.03;57.45
21185;BME280;18176;49.502;11.754;2024-01-30T06:37:38;98410.84;;;4.86;56.83
21185;BME280;18176;49.502;11.754;2024-01-30T06:41:58;98406.34;;;4.70;56.87
21185;BME280;18176;49.502;11.754;2024-01-30T06:46:21;98415.84;;;4.63;56.68
21185;BME280;18176;49.502;11.754;2024-01-30T06:50:42;98415.00;;;4.63;56.77
21185;BME280;18176;49.502;11.754;2024-01-30T06:55:03;98363.13;;;4.23;56.96
21185;BME280;18176;49.502;11.754;2024-01-30T06:59:24;98421.53;;;4.51;56.94
21185;BME280;18176;49.502;11.754;2024-01-30T07:03:48;98412.16;;;4.48;57.26
21185;BME280;18176;49.502;11.754;2024-01-30T07:08:09;98414.88;;;4.64;57.10
21185;BME280;18176;49.502;11.754;2024-01-30T07:12:31;98413.56;;;4.68;57.12
21185;BME280;18176;49.502;11.754;2024-01-30T07:16:53;98418.91;;;4.84;56.99
21185;BME280;18176;49.502;11.754;2024-01-30T07:21:16;98433.28;;;5.06;57.20
21185;BME280;18176;49.502;11.754;2024-01-30T07:25:40;98437.47;;;5.25;56.37
21185;BME280;18176;49.502;11.754;2024-01-30T07:30:03;98431.28;;;5.58;56.38
21185;BME280;18176;49.502;11.754;2024-01-30T07:34:23;98423.63;;;6.13;56.58
21185;BME280;18176;49.502;11.754;2024-01-30T07:38:48;98437.88;;;6.67;56.47
21185;BME280;18176;49.502;11.754;2024-01-30T07:43:10;98429.81;;;7.07;55.87
21185;BME280;18176;49.502;11.754;2024-01-30T07:47:31;98434.22;;;7.53;55.22
21185;BME280;18176;49.502;11.754;2024-01-30T07:51:52;98435.34;;;7.82;53.86
21185;BME280;18176;49.502;11.754;2024-01-30T07:56:15;98429.72;;;8.07;54.39
21185;BME280;18176;49.502;11.754;2024-01-30T08:00:36;98434.56;;;8.41;54.05
21185;BME280;18176;49.502;11.754;2024-01-30T08:04:57;98430.53;;;8.68;53.12
21185;BME280;18176;49.502;11.754;2024-01-30T08:09:18;98391.81;;;8.75;50.66
21185;BME280;18176;49.502;11.754;2024-01-30T08:13:41;98432.22;;;9.19;49.05
21185;BME280;18176;49.502;11.754;2024-01-30T08:18:02;98433.22;;;9.33;48.95
21185;BME280;18176;49.502;11.754;2024-01-30T08:22:26;98433.53;;;9.08;49.50
21185;BME280;18176;49.502;11.754;2024-01-30T08:26:50;98441.16;;;8.89;50.35
21185;BME280;18176;49.502;11.754;2024-01-30T08:31:13;98440.09;;;9.12;49.99
21185;BME280;18176;49.502;11.754;2024-01-30T08:35:34;98425.56;;;9.73;49.43
21185;BME280;18176;49.502;11.754;2024-01-30T08:39:55;98430.16;;;9.86;48.31
21185;BME280;18176;49.502;11.754;2024-01-30T08:44:17;98448.19;;;10.39;47.89
21185;BME280;18176;49.502;11.754;2024-01-30T08:48:41;98447.31;;;10.32;47.65
21185;BME280;18176;49.502;11.754;2024-01-30T08:53:03;98433.34;;;10.17;47.85
21185;BME280;18176;49.502;11.754;2024-01-30T08:57:23;98430.13;;;10.22;47.49
21185;BME280;18176;49.502;11.754;2024-01-30T09:01:46;98442.06;;;10.39;47.37
21185;BME280;18176;49.502;11.754;2024-01-30T09:06:26;98441.25;;;10.38;47.21
21185;BME280;18176;49.502;11.754;2024-01-30T09:10:46;98435.19;;;10.02;48.02
21185;BME280;18176;49.502;11.754;2024-01-30T09:15:09;98425.97;;;10.13;48.00
21185;BME280;18176;49.502;11.754;2024-01-30T09:19:30;98451.94;;;11.07;46.29
21185;BME280;18176;49.502;11.754;2024-01-30T09:24:01;98448.28;;;11.55;45.12
21185;BME280;18176;49.502;11.754;2024-01-30T09:28:22;98446.84;;;12.13;44.24
21185;BME280;18176;49.502;11.754;2024-01-30T09:32:44;98440.25;;;12.16;43.77
21185;BME280;18176;49.502;11.754;2024-01-30T09:37:05;98445.78;;;12.27;43.22
21185;BME280;18176;49.502;11.754;2024-01-30T09:41:29;98440.03;;;13.09;42.91
21185;BME280;18176;49.502;11.754;2024-01-30T09:45:54;98438.41;;;12.88;42.35
21185;BME280;18176;49.502;11.754;2024-01-30T09:50:16;98437.16;;;13.10;41.80
21185;BME280;18176;49.502;11.754;2024-01-30T09:54:40;98442.91;;;12.94;42.02
21185;BME280;18176;49.502;11.754;2024-01-30T09:59:04;98429.25;;;13.48;41.08
21185;BME280;18176;49.502;11.754;2024-01-30T10:03:25;98428.19;;;13.93;40.57
21185;BME280;18176;49.502;11.754;2024-01-30T10:07:53;98383.59;;;14.38;39.93
21185;BME280;18176;49.502;11.754;2024-01-30T10:12:16;98425.94;;;14.77;39.02
21185;BME280;18176;49.502;11.754;2024-01-30T10:16:39;98426.28;;;15.60;38.27
21185;BME280;18176;49.502;11.754;2024-01-30T10:21:00;98400.81;;;15.21;38.09
21185;BME280;18176;49.502;11.754;2024-01-30T10:25:22;98409.78;;;15.93;37.57
21185;BME280;18176;49.502;11.754;2024-01-30T10:29:43;98409.97;;;15.80;37.02
21185;BME280;18176;49.502;11.754;2024-01-30T10:34:09;98408.66;;;16.53;36.41
21185;BME280;18176;49.502;11.754;2024-01-30T10:38:43;98410.28;;;16.89;35.95
21185;BME280;18176;49.502;11.754;2024-01-30T10:43:06;98410.41;;;16.59;35.74
21185;BME280;18176;49.502;11.754;2024-01-30T10:47:30;98402.59;;;16.81;35.82
21185;BME280;18176;49.502;11.754;2024-01-30T10:51:55;98395.75;;;16.62;36.66
21185;BME280;18176;49.502;11.754;2024-01-30T10:56:20;98397.06;;;16.18;37.00
21185;BME280;18176;49.502;11.754;2024-01-30T11:00:42;98366.81;;;16.06;37.25
21185;BME280;18176;49.502;11.754;2024-01-30T11:05:05;98376.53;;;16.65;36.31
21185;BME280;18176;49.502;11.754;2024-01-30T11:09:29;98384.75;;;16.29;36.90
21185;BME280;18176;49.502;11.754;2024-01-30T11:13:50;98377.00;;;15.86;37.25
21185;BME280;18176;49.502;11.754;2024-01-30T11:18:11;98377.06;;;15.68;37.58
21185;BME280;18176;49.502;11.754;2024-01-30T11:22:32;98369.66;;;15.52;37.79
21185;BME280;18176;49.502;11.754;2024-01-30T11:26:59;98374.31;;;14.65;39.06
21185;BME280;18176;49.502;11.754;2024-01-30T11:31:20;98365.88;;;15.23;39.07
21185;BME280;18176;49.502;11.754;2024-01-30T11:35:42;98347.75;;;15.73;38.57
21185;BME280;18176;49.502;11.754;2024-01-30T11:40:06;98361.16;;;15.84;37.41
21185;BME280;18176;49.502;11.754;2024-01-30T11:44:29;98355.75;;;15.61;38.16
21185;BME280;18176;49.502;11.754;2024-01-30T11:48:52;98362.84;;;15.97;37.85
21185;BME280;18176;49.502;11.754;2024-01-30T11:53:16;98361.47;;;16.06;37.33
21185;BME280;18176;49.502;11.754;2024-01-30T11:57:37;98340.88;;;16.99;36.26
21185;BME280;18176;49.502;11.754;2024-01-30T12:02:00;98321.41;;;16.64;36.52
21185;BME280;18176;49.502;11.754;2024-01-30T12:06:22;98345.25;;;17.28;36.11
21185;BME280;18176;49.502;11.754;2024-01-30T12:10:43;98337.00;;;17.18;35.96
21185;BME280;18176;49.502;11.754;2024-01-30T12:15:05;98331.78;;;17.51;35.24
21185;BME280;18176;49.502;11.754;2024-01-30T12:19:28;98329.44;;;17.55;35.02
21185;BME280;18176;49.502;11.754;2024-01-30T12:23:49;98320.91;;;17.18;35.73
21185;BME280;18176;49.502;11.754;2024-01-30T12:28:10;98326.38;;;17.23;35.61
21185;BME280;18176;49.502;11.754;2024-01-30T12:32:35;98288.00;;;16.66;36.07
21185;BME280;18176;49.502;11.754;2024-01-30T12:36:59;98287.44;;;16.53;36.46
21185;BME280;18176;49.502;11.754;2024-01-30T12:41:20;98309.72;;;16.47;37.18
21185;BME280;18176;49.502;11.754;2024-01-30T12:45:46;98304.38;;;16.47;36.71
21185;BME280;18176;49.502;11.754;2024-01-30T12:50:07;98284.59;;;16.01;37.31
21185;BME280;18176;49.502;11.754;2024-01-30T12:54:32;98291.00;;;16.35;37.29
21185;BME280;18176;49.502;11.754;2024-01-30T12:58:53;98297.41;;;16.23;37.32
21185;BME280;18176;49.502;11.754;2024-01-30T13:03:14;98293.81;;;16.40;37.07
21185;BME280;18176;49.502;11.754;2024-01-30T13:07:34;98288.56;;;16.34;36.95
21185;BME280;18176;49.502;11.754;2024-01-30T13:11:58;98287.06;;;16.38;37.23
21185;BME280;18176;49.502;11.754;2024-01-30T13:16:18;98284.59;;;15.90;38.22
21185;BME280;18176;49.502;11.754;2024-01-30T13:20:39;98284.47;;;15.85;38.17
21185;BME280;18176;49.502;11.754;2024-01-30T13:25:00;98281.56;;;15.86;38.25
21185;BME280;18176;49.502;11.754;2024-01-30T13:29:23;98280.25;;;15.77;38.46
21185;BME280;18176;49.502;11.754;2024-01-30T13:33:45;98283.19;;;15.87;38.03
21185;BME280;18176;49.502;11.754;2024-01-30T13:38:06;98271.22;;;15.78;38.23
21185;BME280;18176;49.502;11.754;2024-01-30T13:42:29;98250.28;;;15.75;37.99
21185;BME280;18176;49.502;11.754;2024-01-30T13:46:53;98256.16;;;15.54;38.58
21185;BME280;18176;49.502;11.754;2024-01-30T13:51:14;98271.25;;;15.49;38.69
21185;BME280;18176;49.502;11.754;2024-01-30T13:55:35;98291.22;;;15.46;38.80
21185;BME280;18176;49.502;11.754;2024-01-30T13:59:56;98280.19;;;15.24;39.13
21185;BME280;18176;49.502;11.754;2024-01-30T14:04:19;98244.84;;;15.11;39.17
21185;BME280;18176;49.502;11.754;2024-01-30T14:08:40;98288.75;;;15.74;38.87
21185;BME280;18176;49.502;11.754;2024-01-30T14:13:10;98281.47;;;15.93;38.41
21185;BME280;18176;49.502;11.754;2024-01-30T14:17:31;98281.59;;;15.57;38.94
21185;BME280;18176;49.502;11.754;2024-01-30T14:21:54;98287.13;;;15.43;38.75
21185;BME280;18176;49.502;11.754;2024-01-30T14:26:14;98295.72;;;15.16;39.32
21185;BME280;18176;49.502;11.754;2024-01-30T14:30:35;98298.34;;;15.04;39.84
21185;BME280;18176;49.502;11.754;2024-01-30T14:34:56;98292.66;;;14.83;40.21
21185;BME280;18176;49.502;11.754;2024-01-30T14:39:20;98277.50;;;14.95;40.11
21185;BME280;18176;49.502;11.754;2024-01-30T14:43:41;98290.13;;;14.51;40.79
21185;BME280;18176;49.502;11.754;2024-01-30T14:48:02;98245.09;;;14.19;41.07
21185;BME280;18176;49.502;11.754;2024-01-30T14:52:23;98302.28;;;14.84;40.59
21185;BME280;18176;49.502;11.754;2024-01-30T14:56:47;98302.59;;;14.94;40.55
21185;BME280;18176;49.502;11.754;2024-01-30T15:01:08;98292.19;;;15.04;40.01
21185;BME280;18176;49.502;11.754;2024-01-30T15:05:29;98309.31;;;14.78;40.83
21185;BME280;18176;49.502;11.754;2024-01-30T15:09:49;98305.69;;;14.54;41.15
21185;BME280;18176;49.502;11.754;2024-01-30T15:14:13;98283.09;;;14.14;41.46
21185;BME280;18176;49.502;11.754;2024-01-30T15:18:34;98303.50;;;14.02;41.93
21185;BME280;18176;49.502;11.754;2024-01-30T15:22:55;98316.13;;;14.13;42.16
21185;BME280;18176;49.502;11.754;2024-01-30T15:27:15;98321.81;;;14.17;42.01
21185;BME280;18176;49.502;11.754;2024-01-30T15:31:39;98312.94;;;13.98;41.95
21185;BME280;18176;49.502;11.754;2024-01-30T15:36:01;98319.69;;;14.25;41.62
21185;BME280;18176;49.502;11.754;2024-01-30T15:40:21;98318.41;;;13.85;42.59
21185;BME280;18176;49.502;11.754;2024-01-30T15:44:42;98317.28;;;13.68;42.91
21185;BME280;18176;49.502;11.754;2024-01-30T15:49:05;98312.31;;;13.47;43.19
21185;BME280;18176;49.502;11.754;2024-01-30T15:53:28;98321.28;;;13.14;43.82
21185;BME280;18176;49.502;11.754;2024-01-30T15:57:48;98328.50;;;13.07;43.86
21185;BME280;18176;49.502;11.754;2024-01-30T16:02:09;98337.06;;;12.96;44.19
21185;BME280;18176;49.502;11.754;2024-01-30T16:06:35;98342.44;;;12.83;44.13
21185;BME280;18176;49.502;11.754;2024-01-30T16:10:55;98344.34;;;12.69;44.49
21185;BME280;18176;49.502;11.754;2024-01-30T16:15:16;98354.19;;;12.56;44.57
21185;BME280;18176;49.502;11.754;2024-01-30T16:19:38;98352.97;;;12.39;45.55
21185;BME280;18176;49.502;11.754;2024-01-30T16:24:03;98367.94;;;12.27;45.57
21185;BME280;18176;49.502;11.754;2024-01-30T16:28:25;98368.09;;;12.32;45.93
21185;BME280;18176;49.502;11.754;2024-01-30T16:32:46;98377.94;;;12.12;46.81
21185;BME280;18176;49.502;11.754;2024-01-30T16:37:08;98375.50;;;11.97;46.87
21185;BME280;18176;49.502;11.754;2024-01-30T16:41:32;98330.06;;;11.66;47.25
21185;BME280;18176;49.502;11.754;2024-01-30T16:45:53;98369.31;;;11.70;47.45
21185;BME280;18176;49.502;11.754;2024-01-30T16:50:15;98362.16;;;11.71;47.38
21185;BME280;18176;49.502;11.754;2024-01-30T16:54:36;98349.22;;;11.55;47.73
21185;BME280;18176;49.502;11.754;2024-01-30T16:58:59;98368.47;;;11.70;47.48
21185;BME280;18176;49.502;11.754;2024-01-30T17:03:20;98367.59;;;11.56;47.85
21185;BME280;18176;49.502;11.754;2024-01-30T17:07:41;98365.44;;;11.19;48.55
21185;BME280;18176;49.502;11.754;2024-01-30T17:12:02;98361.41;;;11.29;48.49
21185;BME280;18176;49.502;11.754;2024-01-30T17:16:25;98367.09;;;11.20;48.72
21185;BME280;18176;49.502;11.754;2024-01-30T17:20:46;98377.72;;;11.20;48.65
21185;BME280;18176;49.502;11.754;2024-01-30T17:25:08;98380.09;;;11.02;48.59
21185;BME280;18176;49.502;11.754;2024-01-30T17:29:29;98387.34;;;10.87;49.08
21185;BME280;18176;49.502;11.754;2024-01-30T17:33:52;98378.69;;;10.72;49.31
21185;BME280;18176;49.502;11.754;2024-01-30T17:38:13;98393.25;;;10.54;49.52
21185;BME280;18176;49.502;11.754;2024-01-30T17:42:36;98398.78;;;10.59;49.37
21185;BME280;18176;49.502;11.754;2024-01-30T17:46:57;98405.94;;;10.59;49.31
21185;BME280;18176;49.502;11.754;2024-01-30T17:51:20;98405.13;;;10.58;49.04
21185;BME280;18176;49.502;11.754;2024-01-30T17:55:41;98388.19;;;10.32;49.46
21185;BME280;18176;49.502;11.754;2024-01-30T18:00:02;98412.63;;;10.27;49.81
21185;BME280;18176;49.502;11.754;2024-01-30T18:04:24;98414.19;;;10.15;50.29
21185;BME280;18176;49.502;11.754;2024-01-30T18:08:47;98412.53;;;10.14;50.00
21185;BME280;18176;49.502;11.754;2024-01-30T18:13:08;98416.03;;;10.00;50.48
21185;BME280;18176;49.502;11.754;2024-01-30T18:17:31;98400.84;;;9.87;50.84
21185;BME280;18176;49.502;11.754;2024-01-30T18:21:52;98414.31;;;9.93;51.15
21185;BME280;18176;49.502;11.754;2024-01-30T18:26:15;98412.75;;;9.77;51.74
21185;BME280;18176;49.502;11.754;2024-01-30T18:30:36;98406.31;;;9.65;51.50
21185;BME280;18176;49.502;11.754;2024-01-30T18:34:56;98411.81;;;9.49;51.74
21185;BME280;18176;49.502;11.754;2024-01-30T18:39:18;98422.91;;;9.38;52.04
21185;BME280;18176;49.502;11.754;2024-01-30T18:43:42;98432.13;;;9.27;52.47
21185;BME280;18176;49.502;11.754;2024-01-30T18:48:04;98380.56;;;8.87;52.28
21185;BME280;18176;49.502;11.754;2024-01-30T18:52:25;98392.41;;;8.91;52.24
21185;BME280;18176;49.502;11.754;2024-01-30T18:56:46;98392.41;;;8.91;52.18
21185;BME280;18176;49.502;11.754;2024-01-30T19:01:13;98383.31;;;8.79;52.48
21185;BME280;18176;49.502;11.754;2024-01-30T19:05:33;98398.63;;;8.69;52.99
21185;BME280;18176;49.502;11.754;2024-01-30T19:09:54;98403.16;;;8.75;53.76
21185;BME280;18176;49.502;11.754;2024-01-30T19:14:15;98413.38;;;8.78;53.37
21185;BME280;18176;49.502;11.754;2024-01-30T19:18:38;98407.81;;;8.73;53.10
21185;BME280;18176;49.502;11.754;2024-01-30T19:23:00;98415.31;;;8.70;53.24
21185;BME280;18176;49.502;11.754;2024-01-30T19:27:21;98392.78;;;8.59;53.06
21185;BME280;18176;49.502;11.754;2024-01-30T19:31:42;98430.69;;;8.66;53.61
21185;BME280;18176;49.502;11.754;2024-01-30T19:36:09;98425.56;;;8.50;53.89
21185;BME280;18176;49.502;11.754;2024-01-30T19:40:30;98432.69;;;8.64;53.99
21185;BME280;18176;49.502;11.754;2024-01-30T19:44:51;98434.53;;;8.78;53.81
21185;BME280;18176;49.502;11.754;2024-01-30T19:49:13;98422.22;;;8.71;53.71
21185;BME280;18176;49.502;11.754;2024-01-30T19:53:37;98404.91;;;8.68;53.39
21185;BME280;18176;49.502;11.754;2024-01-30T19:57:58;98418.59;;;8.86;53.39
21185;BME280;18176;49.502;11.754;2024-01-30T20:02:21;98427.13;;;9.03;52.95
21185;BME280;18176;49.502;11.754;2024-01-30T20:06:43;98398.78;;;8.82;53.00
21185;BME280;18176;49.502;11.754;2024-01-30T20:11:14;98414.94;;;8.87;52.81
21185;BME280;18176;49.502;11.754;2024-01-30T20:15:35;98404.06;;;8.82;52.88
21185;BME280;18176;49.502;11.754;2024-01-30T20:19:56;98434.06;;;8.89;52.96
21185;BME280;18176;49.502;11.754;2024-01-30T20:24:17;98318.22;;;8.20;52.83
21185;BME280;18176;49.502;11.754;2024-01-30T20:28:40;98443.38;;;8.85;52.68
21185;BME280;18176;49.502;11.754;2024-01-30T20:33:01;98450.47;;;8.85;53.08
21185;BME280;18176;49.502;11.754;2024-01-30T20:37:22;98420.69;;;8.76;52.99
21185;BME280;18176;49.502;11.754;2024-01-30T20:41:43;98438.63;;;9.10;52.95
21185;BME280;18176;49.502;11.754;2024-01-30T20:46:08;98448.69;;;9.50;52.65
21185;BME280;18176;49.502;11.754;2024-01-30T20:50:30;98444.47;;;9.56;52.46
21185;BME280;18176;49.502;11.754;2024-01-30T20:54:51;98448.25;;;9.82;51.71
21185;BME280;18176;49.502;11.754;2024-01-30T20:59:13;98427.25;;;9.60;52.02
21185;BME280;18176;49.502;11.754;2024-01-30T21:03:37;98434.09;;;9.40;52.37
21185;BME280;18176;49.502;11.754;2024-01-30T21:07:58;98450.94;;;9.53;52.14
21185;BME280;18176;49.502;11.754;2024-01-30T21:12:19;98465.56;;;9.64;52.17
21185;BME280;18176;49.502;11.754;2024-01-30T21:16:40;98455.38;;;9.82;51.98
21185;BME280;18176;49.502;11.754;2024-01-30T21:21:04;98448.06;;;9.84;51.83
21185;BME280;18176;49.502;11.754;2024-01-30T21:25:25;98454.53;;;9.81;51.72
21185;BME280;18176;49.502;11.754;2024-01-30T21:29:46;98458.44;;;9.64;51.75
21185;BME280;18176;49.502;11.754;2024-01-30T21:34:07;98464.75;;;9.49;52.21
21185;BME280;18176;49.502;11.754;2024-01-30T21:38:31;98447.44;;;9.32;52.27
21185;BME280;18176;49.502;11.754;2024-01-30T21:42:53;98464.50;;;9.44;52.33
21185;BME280;18176;49.502;11.754;2024-01-30T21:47:13;98437.31;;;9.35;52.49
21185;BME280;18176;49.502;11.754;2024-01-30T21:51:34;98454.16;;;9.49;52.30
21185;BME280;18176;49.502;11.754;2024-01-30T21:55:57;98454.09;;;9.42;52.50
21185;BME280;18176;49.502;11.754;2024-01-30T22:00:18;98452.47;;;9.41;52.16
21185;BME280;18176;49.502;11.754;2024-01-30T22:04:39;98442.69;;;9.42;52.01
21185;BME280;18176;49.502;11.754;2024-01-30T22:09:05;98456.56;;;9.44;52.51
21185;BME280;18176;49.502;11.754;2024-01-30T22:13:28;98447.53;;;9.38;52.51
21185;BME280;18176;49.502;11.754;2024-01-30T22:17:49;98461.47;;;9.47;52.49
21185;BME280;18176;49.502;11.754;2024-01-30T22:22:09;98456.72;;;9.57;52.18
21185;BME280;18176;49.502;11.754;2024-01-30T22:26:30;98464.03;;;9.55;52.31
21185;BME280;18176;49.502;11.754;2024-01-30T22:30:53;98468.56;;;9.61;52.29
21185;BME280;18176;49.502;11.754;2024-01-30T22:35:14;98467.50;;;9.76;52.18
21185;BME280;18176;49.502;11.754;2024-01-30T22:39:35;98467.59;;;9.83;52.03
21185;BME280;18176;49.502;11.754;2024-01-30T22:43:56;98465.19;;;9.88;51.81
21185;BME280;18176;49.502;11.754;2024-01-30T22:48:19;98473.75;;;9.90;52.17
21185;BME280;18176;49.502;11.754;2024-01-30T22:52:39;98471.69;;;9.85;52.15
21185;BME280;18176;49.502;11.754;2024-01-30T22:57:00;98450.44;;;9.79;52.09